Time;durP1;ratioP1;P1;durP2;ratioP2;P2;SDS_P1;SDS_P2;PMS_P1;PMS_P2;Temp;Humidity;BMP_temperature;BMP_pressure;BME280_temperature;BME280_humidity;BME280_pressure;Samples;Min_cycle;Max_cycle;Signal;HPM_P1;HPM_P2
2021/06/20 00:00:49;;;;;;;13.10;7.77;;;;;;;29.50;42.29;96026.81;5051299;28;20190;-69
2021/06/20 00:03:15;;;;;;;9.07;8.17;;;;;;;29.40;42.55;96022.47;5050584;28;20187;-68
2021/06/20 00:05:52;;;;;;;12.27;8.40;;;;;;;29.36;43.09;96023.38;5041685;28;20179;-70
2021/06/20 00:08:17;;;;;;;11.30;7.30;;;;;;;29.39;42.74;96025.44;5051144;28;20213;-70
2021/06/20 00:10:44;;;;;;;8.43;7.60;;;;;;;29.25;43.21;96023.53;5051380;28;20422;-69
2021/06/20 00:13:10;;;;;;;15.83;7.67;;;;;;;29.20;43.36;96025.56;5050160;28;20187;-69
2021/06/20 00:15:37;;;;;;;12.30;7.80;;;;;;;28.46;45.56;96035.28;5042885;28;20417;-69
2021/06/20 00:18:03;;;;;;;15.60;8.57;;;;;;;28.46;45.45;96022.59;5049245;28;20833;-75
2021/06/20 00:20:31;;;;;;;22.60;8.73;;;;;;;28.89;44.58;96020.78;5043325;28;20424;-68
2021/06/20 00:22:57;;;;;;;15.30;8.70;;;;;;;28.79;44.72;96029.88;5048585;28;20421;-70
2021/06/20 00:25:24;;;;;;;12.13;8.10;;;;;;;29.01;43.86;96033.75;5050934;28;20484;-69
2021/06/20 00:27:50;;;;;;;15.33;8.00;;;;;;;28.92;44.12;96028.28;5050875;28;20701;-69
2021/06/20 00:30:18;;;;;;;11.50;7.30;;;;;;;29.12;43.59;96022.47;5050203;28;20463;-69
2021/06/20 00:32:45;;;;;;;12.10;7.70;;;;;;;29.11;43.25;96036.28;5050710;28;20452;-68
2021/06/20 00:35:11;;;;;;;12.00;7.70;;;;;;;29.28;42.97;96033.75;5040795;28;20451;-69
2021/06/20 00:37:37;;;;;;;12.23;7.13;;;;;;;28.98;43.81;96047.84;5049847;28;20462;-69
2021/06/20 00:40:03;;;;;;;23.13;8.17;;;;;;;29.07;43.42;96046.06;5051524;28;20989;-69
2021/06/20 00:42:29;;;;;;;16.20;8.40;;;;;;;28.79;44.29;96046.84;5054590;28;20233;-69
2021/06/20 00:44:55;;;;;;;26.17;8.10;;;;;;;28.82;43.69;96045.44;5061058;28;20908;-70
2021/06/20 00:47:20;;;;;;;24.60;8.20;;;;;;;28.55;44.41;96056.94;5054830;28;20167;-69
2021/06/20 00:49:46;;;;;;;30.47;7.80;;;;;;;28.56;44.62;96048.56;5050808;28;20203;-69
2021/06/20 00:52:13;;;;;;;26.50;8.20;;;;;;;28.38;44.72;96062.88;5049455;28;20257;-70
2021/06/20 00:54:46;;;;;;;29.33;8.10;;;;;;;28.26;44.67;96057.97;5042765;28;20414;-70
2021/06/20 00:57:16;;;;;;;31.00;7.70;;;;;;;28.45;44.30;96057.94;5059060;28;20456;-71
2021/06/20 00:59:43;;;;;;;38.57;9.23;;;;;;;28.65;43.41;96059.47;5057213;28;20988;-69
2021/06/20 01:02:11;;;;;;;59.50;9.20;;;;;;;28.45;43.69;96050.63;5054852;28;20432;-72
2021/06/20 01:04:36;;;;;;;38.37;8.33;;;;;;;29.02;42.49;96054.22;5044643;28;21135;-70
2021/06/20 01:07:02;;;;;;;49.40;8.07;;;;;;;28.69;43.20;96051.59;5048926;28;20425;-70
2021/06/20 01:09:28;;;;;;;35.73;8.70;;;;;;;28.64;43.79;96049.78;5049549;28;20219;-68
2021/06/20 01:11:54;;;;;;;38.93;8.23;;;;;;;28.42;44.14;96058.53;5049357;28;20429;-69
2021/06/20 01:14:20;;;;;;;38.43;8.77;;;;;;;28.56;44.01;96059.34;5053752;28;20206;-70
2021/06/20 01:16:46;;;;;;;38.50;8.60;;;;;;;28.31;44.67;96064.09;5052834;28;20227;-70
2021/06/20 01:19:11;;;;;;;32.50;8.63;;;;;;;28.25;44.36;96070.63;5053667;28;20441;-69
2021/06/20 01:21:37;;;;;;;35.57;7.83;;;;;;;28.31;44.38;96071.34;5047636;28;20180;-69
2021/06/20 01:24:03;;;;;;;37.87;8.87;;;;;;;28.13;44.43;96073.81;5049485;28;20175;-69
2021/06/20 01:26:32;;;;;;;36.20;8.47;;;;;;;28.13;44.94;96075.69;5053620;28;20502;-69
2021/06/20 01:29:05;;;;;;;27.10;8.20;;;;;;;28.27;44.63;96073.84;5051629;28;20488;-69
2021/06/20 01:31:32;;;;;;;32.67;7.60;;;;;;;28.41;43.92;96081.97;5053358;28;20779;-69
2021/06/20 01:33:58;;;;;;;49.50;8.70;;;;;;;28.45;44.25;96084.88;5053091;28;20444;-69
2021/06/20 01:36:24;;;;;;;33.70;8.30;;;;;;;28.36;44.00;96093.59;5044926;28;20414;-69
2021/06/20 01:38:50;;;;;;;37.17;7.70;;;;;;;28.38;44.10;96092.53;5052817;28;20523;-70
2021/06/20 01:41:15;;;;;;;30.00;8.33;;;;;;;28.44;44.00;96088.66;5051725;28;20199;-69
2021/06/20 01:43:41;;;;;;;49.97;8.50;;;;;;;28.24;44.43;96092.47;5052873;28;20179;-70
2021/06/20 01:46:07;;;;;;;47.23;7.80;;;;;;;28.21;44.53;96107.34;5043211;28;20588;-70
2021/06/20 01:48:33;;;;;;;45.93;7.83;;;;;;;27.85;45.31;96107.84;5052836;28;20709;-69
2021/06/20 01:50:58;;;;;;;42.73;8.00;;;;;;;27.84;45.62;96117.78;5053185;28;20558;-69
2021/06/20 01:53:24;;;;;;;50.97;8.30;;;;;;;28.21;44.79;96118.13;5052549;28;20266;-69
2021/06/20 01:55:49;;;;;;;43.77;9.13;;;;;;;27.72;45.80;96117.41;5052872;28;20198;-69
2021/06/20 01:58:17;;;;;;;66.60;8.90;;;;;;;27.74;45.61;96112.56;5052960;28;20575;-70
2021/06/20 02:00:46;;;;;;;60.23;8.50;;;;;;;27.79;45.51;96117.06;5052857;28;20646;-69
2021/06/20 02:03:14;;;;;;;36.30;8.17;;;;;;;27.48;46.34;96101.31;5051592;28;20428;-68
2021/06/20 02:05:41;;;;;;;32.93;7.77;;;;;;;27.45;46.49;96102.69;5043610;28;20418;-70
2021/06/20 02:08:07;;;;;;;47.83;7.47;;;;;;;27.64;46.20;96121.56;5052182;28;20441;-69
2021/06/20 02:10:33;;;;;;;39.33;7.87;;;;;;;27.33;47.04;96116.53;5051290;28;20809;-69
2021/06/20 02:12:59;;;;;;;50.07;8.00;;;;;;;27.46;46.70;96125.81;5053233;28;20445;-68
2021/06/20 02:15:24;;;;;;;40.77;7.83;;;;;;;27.35;47.19;96140.44;5053959;28;20187;-69
2021/06/20 02:17:50;;;;;;;33.87;8.10;;;;;;;27.30;47.32;96144.00;5054916;28;20222;-69
2021/06/20 02:20:18;;;;;;;37.47;7.90;;;;;;;27.17;47.80;96142.00;5053243;28;20187;-67
2021/06/20 02:22:45;;;;;;;38.93;7.20;;;;;;;27.06;47.99;96149.34;5049553;28;20410;-70
2021/06/20 02:25:13;;;;;;;46.47;8.13;;;;;;;27.43;47.27;96153.25;5051097;28;20437;-69
2021/06/20 02:27:39;;;;;;;41.53;8.67;;;;;;;27.21;47.72;96164.53;5051143;28;20935;-69
2021/06/20 02:30:05;;;;;;;37.30;8.70;;;;;;;26.75;48.96;96163.84;5052287;28;20417;-71
2021/06/20 02:32:31;;;;;;;48.00;9.20;;;;;;;26.79;49.07;96162.25;5051461;28;20600;-70
2021/06/20 02:34:56;;;;;;;30.07;8.33;;;;;;;26.94;48.91;96165.88;5044739;28;20432;-69
2021/06/20 02:37:22;;;;;;;44.60;8.73;;;;;;;26.84;49.04;96164.06;5051193;28;20245;-69
2021/06/20 02:39:48;;;;;;;37.73;7.63;;;;;;;26.53;49.92;96158.91;5050750;28;20215;-69
2021/06/20 02:42:15;;;;;;;35.10;7.50;;;;;;;27.10;48.51;96151.19;5052178;28;20997;-69
2021/06/20 02:44:41;;;;;;;37.17;8.27;;;;;;;26.94;48.82;96149.75;5043104;28;20422;-69
2021/06/20 02:47:07;;;;;;;32.43;7.87;;;;;;;27.12;48.34;96154.38;5043752;28;20421;-69
2021/06/20 02:49:34;;;;;;;29.20;8.00;;;;;;;27.59;47.55;96151.22;5052991;28;20449;-69
2021/06/20 02:52:00;;;;;;;27.50;8.20;;;;;;;27.84;46.64;96152.00;5053350;28;20559;-69
2021/06/20 02:54:26;;;;;;;41.40;8.07;;;;;;;27.93;46.56;96160.19;5049635;28;20434;-69
2021/06/20 02:56:53;;;;;;;43.50;8.60;;;;;;;27.84;46.73;96184.28;5048473;28;20211;-69
2021/06/20 02:59:18;;;;;;;30.07;7.53;;;;;;;27.64;47.42;96179.97;5039695;28;20576;-69
2021/06/20 03:01:44;;;;;;;45.17;8.50;;;;;;;27.37;48.12;96181.31;5047596;28;20453;-71
2021/06/20 03:04:10;;;;;;;41.77;8.50;;;;;;;27.27;48.27;96174.13;5052955;28;20282;-69
2021/06/20 03:06:36;;;;;;;31.23;7.30;;;;;;;27.54;47.32;96178.19;5045282;28;20745;-70
2021/06/20 03:09:03;;;;;;;35.23;7.53;;;;;;;27.55;47.51;96171.72;5051828;28;20520;-69
2021/06/20 03:11:28;;;;;;;37.60;7.60;;;;;;;26.88;49.58;96177.75;5044317;28;20855;-70
2021/06/20 03:13:54;;;;;;;40.07;7.10;;;;;;;26.59;50.20;96183.88;5049581;28;20422;-69
2021/06/20 03:16:20;;;;;;;30.30;8.30;;;;;;;26.85;49.60;96189.03;5050362;28;20213;-70
2021/06/20 03:18:47;;;;;;;25.70;7.13;;;;;;;26.89;49.69;96190.09;5050967;28;20293;-70
2021/06/20 03:21:14;;;;;;;36.03;8.33;;;;;;;26.94;49.76;96193.53;5046709;28;20422;-70
2021/06/20 03:23:40;;;;;;;42.17;7.27;;;;;;;27.01;49.51;96209.34;5035511;28;20425;-69
2021/06/20 03:26:06;;;;;;;38.40;7.60;;;;;;;27.03;49.45;96188.34;5047080;28;20429;-70
2021/06/20 03:28:31;;;;;;;29.30;8.20;;;;;;;27.17;49.20;96187.69;5049872;28;20191;-69
2021/06/20 03:30:57;;;;;;;34.10;8.40;;;;;;;27.13;49.28;96195.53;5051401;28;20186;-69
2021/06/20 03:33:22;;;;;;;39.97;9.00;;;;;;;27.25;48.77;96184.38;5032708;28;20493;-69
2021/06/20 03:35:48;;;;;;;42.37;7.83;;;;;;;26.90;49.92;96199.75;5050651;28;20195;-69
2021/06/20 03:38:14;;;;;;;31.23;8.70;;;;;;;27.36;49.05;96204.69;5050248;28;20238;-69
2021/06/20 03:40:39;;;;;;;39.63;7.73;;;;;;;27.19;49.50;96213.19;5049965;28;20233;-70
2021/06/20 03:43:05;;;;;;;30.30;7.83;;;;;;;26.90;50.96;96213.19;5051121;28;20211;-70
2021/06/20 03:45:31;;;;;;;36.40;8.17;;;;;;;27.37;49.50;96217.06;5050894;28;20179;-69
2021/06/20 03:47:56;;;;;;;33.33;8.50;;;;;;;27.51;49.50;96216.41;5050764;28;20222;-69
2021/06/20 03:50:23;;;;;;;36.80;7.47;;;;;;;27.61;49.16;96223.56;5050679;28;20183;-69
2021/06/20 03:52:49;;;;;;;31.70;7.97;;;;;;;27.62;48.92;96223.28;5049775;28;20231;-69
2021/06/20 03:55:15;;;;;;;33.30;8.60;;;;;;;27.59;48.94;96221.97;5047264;28;20912;-69
2021/06/20 03:57:41;;;;;;;31.13;6.70;;;;;;;27.52;49.08;96226.91;5049448;28;20457;-69
2021/06/20 04:00:09;;;;;;;36.83;8.40;;;;;;;27.49;49.21;96223.97;5050793;28;20422;-70
2021/06/20 04:02:35;;;;;;;21.80;6.90;;;;;;;27.44;49.45;96220.25;5050717;28;20574;-70
2021/06/20 04:05:01;;;;;;;34.67;7.10;;;;;;;27.51;49.35;96209.16;5050498;28;20457;-70
2021/06/20 04:07:26;;;;;;;26.83;7.23;;;;;;;27.48;49.23;96207.03;5051301;28;20503;-69
2021/06/20 04:09:52;;;;;;;22.50;6.43;;;;;;;26.98;49.88;96197.28;5053333;28;20260;-69
2021/06/20 04:12:17;;;;;;;31.20;7.50;;;;;;;26.77;50.75;96188.56;5055211;28;20198;-70
2021/06/20 04:14:43;;;;;;;36.70;7.30;;;;;;;26.81;50.92;96188.81;5049075;28;20225;-70
2021/06/20 04:17:10;;;;;;;25.33;6.80;;;;;;;27.03;50.18;96182.97;5050994;28;20199;-70
2021/06/20 04:19:36;;;;;;;24.43;6.43;;;;;;;26.81;50.98;96202.25;5050565;28;20202;-69
2021/06/20 04:22:02;;;;;;;24.10;7.10;;;;;;;26.90;50.25;96205.13;5052683;28;20421;-68
2021/06/20 04:24:27;;;;;;;23.63;6.73;;;;;;;26.67;50.75;96204.75;5047437;28;20184;-69
2021/06/20 04:26:53;;;;;;;30.17;6.33;;;;;;;26.64;51.34;96213.38;5043214;28;20183;-69
2021/06/20 04:29:19;;;;;;;34.07;7.17;;;;;;;26.37;51.47;96223.50;5051430;28;20954;-69
2021/06/20 04:31:45;;;;;;;26.97;6.73;;;;;;;26.42;52.00;96205.72;5053895;28;20662;-69
2021/06/20 04:34:10;;;;;;;34.13;7.20;;;;;;;26.59;51.34;96189.25;5052835;28;20182;-69
2021/06/20 04:36:36;;;;;;;23.87;6.47;;;;;;;26.48;51.67;96183.94;5054388;28;20229;-69
2021/06/20 04:39:06;;;;;;;24.97;6.53;;;;;;;26.67;51.44;96164.47;5053611;28;20214;-69
2021/06/20 04:41:32;;;;;;;27.40;6.20;;;;;;;26.75;51.48;96150.41;5054524;28;20183;-69
2021/06/20 04:44:01;;;;;;;26.83;6.83;;;;;;;26.61;51.62;96161.00;5054477;28;20453;-69
2021/06/20 04:46:37;;;;;;;24.37;6.63;;;;;;;26.22;52.39;96181.41;5038503;28;20417;-69
2021/06/20 04:49:07;;;;;;;31.50;6.70;;;;;;;26.87;50.77;96176.13;5053747;28;20589;-69
2021/06/20 04:51:35;;;;;;;26.10;6.20;;;;;;;26.67;50.92;96188.63;5052260;28;20433;-69
2021/06/20 04:54:01;;;;;;;28.77;6.27;;;;;;;26.56;50.73;96187.91;5050152;28;20441;-69
2021/06/20 04:56:27;;;;;;;32.50;6.27;;;;;;;25.90;51.53;96197.94;5053744;28;20787;-69
2021/06/20 04:58:54;;;;;;;20.63;4.80;;;;;;;26.15;50.05;96207.00;5055568;28;20710;-69
2021/06/20 05:01:19;;;;;;;20.60;4.80;;;;;;;26.39;49.62;96201.72;5055266;28;20504;-69
2021/06/20 05:03:45;;;;;;;20.63;4.60;;;;;;;26.49;48.96;96193.59;5053735;28;20505;-70
2021/06/20 05:06:10;;;;;;;22.63;4.77;;;;;;;27.00;47.78;96199.66;5052995;28;20221;-70
2021/06/20 05:08:36;;;;;;;16.13;5.17;;;;;;;26.69;48.16;96194.53;5053430;28;20210;-70
2021/06/20 05:11:02;;;;;;;21.87;4.83;;;;;;;27.20;47.15;96197.88;5052844;28;20179;-69
2021/06/20 05:13:28;;;;;;;18.37;4.73;;;;;;;27.24;46.92;96198.91;5051605;28;20244;-69
2021/06/20 05:15:53;;;;;;;13.53;4.20;;;;;;;27.42;46.70;96217.00;5053781;28;20619;-70
2021/06/20 05:18:19;;;;;;;13.93;4.07;;;;;;;27.20;47.03;96236.31;5044806;28;20219;-68
2021/06/20 05:20:45;;;;;;;18.10;4.40;;;;;;;27.29;46.83;96233.81;5052431;28;20178;-69
2021/06/20 05:23:11;;;;;;;14.77;3.90;;;;;;;26.99;47.74;96227.63;5051053;28;20186;-68
2021/06/20 05:25:36;;;;;;;13.27;3.80;;;;;;;26.40;48.87;96232.88;5044078;28;20202;-69
2021/06/20 05:28:02;;;;;;;12.63;4.00;;;;;;;26.24;49.30;96231.34;5052840;28;20504;-68
2021/06/20 05:30:28;;;;;;;22.80;4.30;;;;;;;26.37;50.07;96220.81;5052499;28;20658;-68
2021/06/20 05:32:54;;;;;;;14.20;4.40;;;;;;;26.47;51.34;96238.72;5040094;28;20203;-69
2021/06/20 05:35:20;;;;;;;24.03;4.50;;;;;;;26.21;51.70;96224.66;5052284;28;20599;-70
2021/06/20 05:37:46;;;;;;;13.03;4.30;;;;;;;26.22;52.86;96208.25;5053067;28;20453;-70
2021/06/20 05:40:12;;;;;;;15.87;4.33;;;;;;;26.61;51.97;96206.69;5052240;28;20199;-71
2021/06/20 05:42:38;;;;;;;16.93;4.53;;;;;;;25.76;53.67;96216.50;5052019;28;20605;-70
2021/06/20 05:45:04;;;;;;;19.47;4.13;;;;;;;26.29;51.90;96212.53;5052878;28;20532;-70
2021/06/20 05:47:30;;;;;;;17.57;4.30;;;;;;;26.56;52.01;96222.81;5053016;28;20650;-70
2021/06/20 05:49:56;;;;;;;19.27;4.10;;;;;;;26.75;50.99;96227.53;5052481;28;20440;-70
2021/06/20 05:52:21;;;;;;;15.50;4.40;;;;;;;26.85;51.33;96230.16;5053146;28;20187;-70
2021/06/20 05:54:50;;;;;;;10.47;3.97;;;;;;;26.36;52.35;96238.00;5052764;28;20183;-70
2021/06/20 05:57:19;;;;;;;22.30;4.60;;;;;;;26.41;51.72;96245.22;5052667;28;20199;-70
2021/06/20 05:59:45;;;;;;;20.37;4.23;;;;;;;26.42;51.36;96241.47;5050838;28;20457;-70
2021/06/20 06:02:11;;;;;;;11.13;4.00;;;;;;;26.93;50.36;96243.00;5050134;28;20431;-70
2021/06/20 06:04:37;;;;;;;9.50;3.60;;;;;;;26.81;50.58;96235.31;5052701;28;20186;-70
2021/06/20 06:07:03;;;;;;;13.23;4.00;;;;;;;27.10;49.67;96239.91;5052659;28;20179;-70
2021/06/20 06:09:28;;;;;;;10.73;3.23;;;;;;;26.81;49.80;96238.00;5051669;28;20453;-70
2021/06/20 06:11:54;;;;;;;14.50;2.97;;;;;;;27.28;48.20;96237.59;5052591;28;20551;-70
2021/06/20 06:14:19;;;;;;;16.10;3.97;;;;;;;27.32;47.85;96230.56;5044209;28;20557;-70
2021/06/20 06:16:46;;;;;;;11.33;3.50;;;;;;;27.31;47.81;96231.66;5051741;28;20282;-70
2021/06/20 06:19:11;;;;;;;13.50;3.80;;;;;;;27.71;46.56;96229.66;5051481;28;20246;-69
2021/06/20 06:21:37;;;;;;;13.43;3.30;;;;;;;27.49;46.87;96232.03;5050138;28;20425;-69
2021/06/20 06:24:04;;;;;;;20.37;3.67;;;;;;;27.14;47.65;96246.31;5053109;28;20262;-69
2021/06/20 06:26:30;;;;;;;17.03;3.57;;;;;;;27.84;46.05;96244.28;5052465;28;20175;-70
2021/06/20 06:28:55;;;;;;;19.43;3.70;;;;;;;27.90;46.04;96258.50;5051885;28;20450;-70
2021/06/20 06:31:21;;;;;;;11.53;3.33;;;;;;;27.48;46.77;96257.31;5051055;28;20579;-69
2021/06/20 06:33:47;;;;;;;21.57;3.90;;;;;;;27.79;46.20;96265.06;5049765;28;20190;-69
2021/06/20 06:36:12;;;;;;;12.43;3.40;;;;;;;28.18;45.27;96270.28;5051362;28;20179;-69
2021/06/20 06:38:38;;;;;;;24.13;3.50;;;;;;;28.33;44.59;96282.75;5051798;28;20340;-70
2021/06/20 06:41:03;;;;;;;11.77;3.67;;;;;;;28.75;44.17;96283.03;5051650;28;20194;-69
2021/06/20 06:43:29;;;;;;;22.60;3.40;;;;;;;29.10;43.01;96269.28;5050664;28;20175;-69
2021/06/20 06:45:55;;;;;;;25.43;3.77;;;;;;;28.79;44.09;96275.13;5051201;28;20189;-68
2021/06/20 06:48:20;;;;;;;9.30;3.30;;;;;;;28.28;44.49;96274.75;5050321;28;20551;-69
2021/06/20 06:50:46;;;;;;;15.77;6.07;;;;;;;28.87;43.23;96284.47;5051998;28;20690;-70
2021/06/20 06:53:12;;;;;;;12.17;4.50;;;;;;;28.76;43.67;96289.19;5050549;28;20206;-69
2021/06/20 06:55:38;;;;;;;10.37;3.23;;;;;;;29.27;42.59;96298.38;5051624;28;20641;-70
2021/06/20 06:58:03;;;;;;;11.60;3.07;;;;;;;28.53;44.33;96297.03;5050285;28;20203;-70
2021/06/20 07:00:29;;;;;;;13.40;3.50;;;;;;;28.77;43.82;96280.03;5051669;28;20175;-69
2021/06/20 07:02:55;;;;;;;13.37;3.93;;;;;;;28.48;44.33;96275.56;5030408;28;20214;-71
2021/06/20 07:05:21;;;;;;;9.00;3.30;;;;;;;28.19;44.93;96279.97;5051366;28;20229;-69
2021/06/20 07:07:46;;;;;;;14.33;3.83;;;;;;;28.18;44.99;96282.97;5051676;28;20171;-68
2021/06/20 07:10:13;;;;;;;12.77;3.63;;;;;;;28.12;44.83;96276.84;5051651;28;20190;-69
2021/06/20 07:12:38;;;;;;;12.00;3.63;;;;;;;27.85;44.72;96267.44;5051296;28;20293;-71
2021/06/20 07:15:05;;;;;;;17.77;3.70;;;;;;;27.98;45.22;96276.69;5052777;28;20845;-69
2021/06/20 07:17:34;;;;;;;14.47;4.10;;;;;;;27.98;46.12;96273.22;5053041;28;20543;-69
2021/06/20 07:20:03;;;;;;;14.00;4.20;;;;;;;28.46;45.53;96259.69;5039075;28;20529;-68
2021/06/20 07:22:29;;;;;;;16.57;4.70;;;;;;;28.27;46.16;96266.97;5044397;28;20445;-70
2021/06/20 07:24:55;;;;;;;16.60;4.27;;;;;;;28.73;45.21;96266.34;5052809;28;20433;-69
2021/06/20 07:27:20;;;;;;;22.47;4.83;;;;;;;29.16;44.12;96276.19;5034486;28;20480;-68
2021/06/20 07:29:48;;;;;;;16.30;4.37;;;;;;;29.15;44.00;96277.25;5045942;28;20450;-68
2021/06/20 07:32:14;;;;;;;16.90;4.20;;;;;;;29.49;42.68;96270.75;5041414;28;20231;-69
2021/06/20 07:34:39;;;;;;;16.20;4.00;;;;;;;29.40;42.99;96270.69;5053188;28;20414;-69
2021/06/20 07:37:05;;;;;;;11.00;4.50;;;;;;;29.27;43.10;96276.81;5043552;28;20453;-69
2021/06/20 07:39:31;;;;;;;23.33;5.13;;;;;;;29.36;42.91;96274.28;5065496;28;20210;-68
2021/06/20 07:41:58;;;;;;;14.80;5.10;;;;;;;29.41;43.05;96285.78;5052652;28;20183;-69
2021/06/20 07:44:23;;;;;;;14.83;3.90;;;;;;;28.88;44.37;96292.25;5051557;28;20190;-69
2021/06/20 07:46:49;;;;;;;12.47;3.73;;;;;;;29.23;43.36;96291.97;5053141;28;20763;-69
2021/06/20 07:49:15;;;;;;;12.90;4.20;;;;;;;29.33;43.61;96291.00;5062569;28;20215;-70
2021/06/20 07:51:40;;;;;;;16.13;4.30;;;;;;;28.92;44.72;96295.97;5064064;28;20171;-71
2021/06/20 07:54:06;;;;;;;10.70;4.37;;;;;;;28.99;44.12;96290.19;5052250;28;20879;-68
2021/06/20 07:56:31;;;;;;;17.40;3.73;;;;;;;28.84;44.51;96291.25;5051901;28;20248;-69
2021/06/20 07:58:57;;;;;;;14.53;4.33;;;;;;;28.67;45.20;96283.63;5051671;28;20198;-69
2021/06/20 08:01:26;;;;;;;11.77;3.77;;;;;;;28.74;45.03;96275.22;5050602;28;20236;-69
2021/06/20 08:03:52;;;;;;;9.60;3.50;;;;;;;29.33;43.61;96274.81;5038176;28;20179;-71
2021/06/20 08:06:17;;;;;;;14.50;3.60;;;;;;;29.12;43.39;96280.53;5046431;28;20783;-67
2021/06/20 08:08:43;;;;;;;9.73;3.43;;;;;;;29.29;43.62;96274.63;5041360;28;20248;-70
2021/06/20 08:11:09;;;;;;;16.80;4.80;;;;;;;29.00;44.13;96272.13;5056089;28;20190;-69
2021/06/20 08:13:34;;;;;;;13.03;4.20;;;;;;;28.98;44.93;96264.34;5057792;28;20175;-70
2021/06/20 08:16:00;;;;;;;14.50;4.03;;;;;;;29.02;44.43;96259.16;5057962;28;20185;-69
2021/06/20 08:18:26;;;;;;;15.80;4.40;;;;;;;29.37;43.67;96251.56;5040539;28;20573;-69
2021/06/20 08:20:51;;;;;;;22.73;5.97;;;;;;;29.28;43.37;96262.22;5055707;28;20657;-70
2021/06/20 08:23:17;;;;;;;19.30;5.07;;;;;;;29.09;43.92;96260.38;5059349;28;20183;-69
2021/06/20 08:25:42;;;;;;;11.27;4.20;;;;;;;29.21;43.47;96257.22;5056756;28;20205;-69
2021/06/20 08:28:08;;;;;;;26.13;7.80;;;;;;;28.70;43.89;96248.00;5057259;28;20335;-69
2021/06/20 08:30:34;;;;;;;12.47;4.30;;;;;;;28.85;43.61;96244.34;5057570;28;20179;-69
2021/06/20 08:33:00;;;;;;;14.90;4.10;;;;;;;28.84;43.98;96255.38;5054037;28;20175;-70
2021/06/20 08:35:26;;;;;;;12.90;3.80;;;;;;;29.09;43.67;96254.19;5056956;28;20178;-69
2021/06/20 08:37:52;;;;;;;15.87;4.13;;;;;;;29.15;43.90;96253.00;5056335;28;20461;-69
2021/06/20 08:40:18;;;;;;;16.40;4.70;;;;;;;29.67;43.25;96252.91;5057095;28;20190;-69
2021/06/20 08:42:44;;;;;;;19.43;4.40;;;;;;;29.88;42.29;96256.00;5057950;28;20183;-70
2021/06/20 08:45:13;;;;;;;17.03;4.07;;;;;;;29.86;42.09;96244.72;5057450;28;20277;-69
2021/06/20 08:47:40;;;;;;;20.90;7.43;;;;;;;29.97;41.50;96244.53;5056529;28;20421;-68
2021/06/20 08:50:06;;;;;;;26.40;5.40;;;;;;;29.67;42.19;96244.81;5057253;28;20939;-68
2021/06/20 08:52:32;;;;;;;23.07;4.37;;;;;;;30.02;41.40;96237.13;5056458;28;20426;-75
2021/06/20 08:55:01;;;;;;;17.57;4.03;;;;;;;29.94;41.75;96245.09;5056823;28;20421;-68
2021/06/20 08:57:38;;;;;;;13.20;4.00;;;;;;;30.24;41.33;96237.50;5059038;28;20205;-70
2021/06/20 09:00:14;;;;;;;24.67;3.93;;;;;;;30.57;40.82;96234.63;5056323;28;20521;-69
2021/06/20 09:02:39;;;;;;;15.93;4.70;;;;;;;29.85;42.15;96223.41;5048580;28;20612;-68
2021/06/20 09:05:08;;;;;;;18.60;4.70;;;;;;;30.16;41.23;96226.28;5057077;28;20450;-68
2021/06/20 09:07:37;;;;;;;8.40;4.33;;;;;;;29.91;41.80;96224.09;5022410;28;20179;-68
2021/06/20 09:10:12;;;;;;;17.87;5.03;;;;;;;29.60;42.70;96222.03;5056874;28;20449;-70
2021/06/20 09:12:46;;;;;;;32.37;12.67;;;;;;;29.69;42.45;96231.81;5057340;28;20417;-70
2021/06/20 09:15:14;;;;;;;36.00;10.07;;;;;;;29.71;42.55;96226.91;5053059;28;20425;-69
2021/06/20 09:17:40;;;;;;;15.23;4.30;;;;;;;29.79;42.18;96227.31;5045781;28;20461;-68
2021/06/20 09:20:06;;;;;;;14.10;4.30;;;;;;;30.03;41.67;96227.13;5053735;28;20967;-70
2021/06/20 09:22:32;;;;;;;24.07;5.03;;;;;;;29.56;42.52;96227.19;5053297;28;20186;-68
2021/06/20 09:25:11;;;;;;;10.87;4.27;;;;;;;29.70;42.71;96227.22;5053409;28;20429;-69
2021/06/20 09:27:37;;;;;;;16.83;4.40;;;;;;;29.10;43.61;96228.81;5044542;28;20445;-68
2021/06/20 09:30:11;;;;;;;15.77;4.93;;;;;;;29.49;42.57;96227.59;5043788;28;20516;-69
2021/06/20 09:32:39;;;;;;;29.37;5.33;;;;;;;29.67;41.82;96225.13;5048763;28;20638;-70
2021/06/20 09:35:05;;;;;;;12.33;4.23;;;;;;;29.37;42.68;96229.97;5053282;28;20532;-68
2021/06/20 09:37:31;;;;;;;15.80;5.37;;;;;;;29.18;42.83;96225.44;5053348;28;20453;-68
2021/06/20 09:39:57;;;;;;;12.40;3.63;;;;;;;29.79;41.46;96225.41;5051925;28;20560;-68
2021/06/20 09:42:22;;;;;;;17.23;4.03;;;;;;;30.11;41.21;96226.44;5045006;28;20509;-70
2021/06/20 09:44:53;;;;;;;17.30;3.80;;;;;;;30.41;38.50;96231.44;5052365;28;20171;-69
2021/06/20 09:47:21;;;;;;;14.10;3.80;;;;;;;30.13;38.46;96221.50;5051699;28;20187;-70
2021/06/20 09:49:49;;;;;;;15.77;3.43;;;;;;;30.47;37.68;96216.72;5052299;28;20442;-70
2021/06/20 09:52:25;;;;;;;8.60;3.20;;;;;;;31.03;36.58;96216.50;5050989;28;20488;-68
2021/06/20 09:54:53;;;;;;;12.77;2.93;;;;;;;31.23;35.46;96207.88;5052556;28;20417;-68
2021/06/20 09:57:20;;;;;;;10.60;3.70;;;;;;;31.56;34.21;96214.88;5051587;28;20689;-68
2021/06/20 10:00:04;;;;;;;12.83;3.00;;;;;;;31.50;33.94;96208.00;5045990;28;20461;-68
2021/06/20 10:02:32;;;;;;;9.23;2.37;;;;;;;31.50;33.68;96195.25;5035324;28;20418;-70
2021/06/20 10:04:58;;;;;;;7.40;3.07;;;;;;;31.85;33.50;96200.03;5051829;28;20414;-68
2021/06/20 10:07:26;;;;;;;3.80;2.30;;;;;;;31.72;33.24;96199.03;5052057;28;20509;-69
2021/06/20 10:09:52;;;;;;;10.30;2.60;;;;;;;31.48;33.64;96194.78;5052325;28;20857;-68
2021/06/20 10:12:18;;;;;;;6.60;2.20;;;;;;;31.45;33.76;96191.91;5051476;28;20450;-69
2021/06/20 10:14:45;;;;;;;9.43;2.90;;;;;;;31.64;33.49;96188.94;5051028;28;20249;-68
2021/06/20 10:17:16;;;;;;;12.17;2.70;;;;;;;31.56;33.91;96182.38;5052825;28;20956;-68
2021/06/20 10:19:49;;;;;;;13.43;2.60;;;;;;;31.84;33.54;96177.53;5050779;28;20499;-70
2021/06/20 10:22:16;;;;;;;7.27;2.80;;;;;;;31.84;33.48;96172.13;5031609;28;20422;-70
2021/06/20 10:24:52;;;;;;;9.97;2.30;;;;;;;31.52;33.71;96171.41;5050903;28;20927;-68
2021/06/20 10:27:27;;;;;;;9.90;2.90;;;;;;;31.49;33.81;96172.00;5050746;28;20418;-69
2021/06/20 10:29:54;;;;;;;9.63;2.40;;;;;;;30.95;34.31;96174.78;5052165;28;20444;-70
2021/06/20 10:32:21;;;;;;;8.10;2.20;;;;;;;31.34;33.42;96170.53;5049487;28;20442;-68
2021/06/20 10:34:51;;;;;;;9.63;2.40;;;;;;;31.48;33.60;96164.22;5051927;28;20460;-68
2021/06/20 10:37:19;;;;;;;9.90;2.20;;;;;;;30.89;34.33;96154.38;5052208;28;20868;-69
2021/06/20 10:39:49;;;;;;;9.10;2.70;;;;;;;31.19;34.04;96152.00;5053703;28;21005;-69
2021/06/20 10:42:15;;;;;;;9.67;3.50;;;;;;;30.46;35.17;96142.97;5053973;28;20418;-69
2021/06/20 10:44:52;;;;;;;5.43;2.27;;;;;;;31.41;33.82;96130.28;5050762;28;20418;-68
2021/06/20 10:47:31;;;;;;;10.10;2.27;;;;;;;31.73;33.67;96132.16;5051948;28;20478;-69
2021/06/20 10:50:06;;;;;;;7.00;2.27;;;;;;;31.91;33.66;96138.38;5035405;28;20437;-69
2021/06/20 10:52:33;;;;;;;8.87;2.50;;;;;;;32.13;33.41;96135.53;5051663;28;20409;-69
2021/06/20 10:55:06;;;;;;;7.77;2.60;;;;;;;32.09;33.24;96133.78;5043479;28;20746;-69
2021/06/20 10:57:32;;;;;;;10.10;2.60;;;;;;;32.02;33.83;96135.03;5028633;28;20531;-68
2021/06/20 10:59:59;;;;;;;11.90;2.83;;;;;;;32.00;33.79;96141.88;5042626;28;20445;-67
2021/06/20 11:02:32;;;;;;;8.23;2.80;;;;;;;32.04;33.67;96137.44;5035763;28;20176;-68
2021/06/20 11:04:58;;;;;;;7.27;2.97;;;;;;;31.83;34.82;96139.97;5055676;28;20418;-68
2021/06/20 11:07:27;;;;;;;11.83;3.20;;;;;;;32.16;33.93;96137.59;5050315;28;20972;-68
2021/06/20 11:09:53;;;;;;;11.40;2.80;;;;;;;32.55;33.28;96132.34;5051359;28;20437;-70
2021/06/20 11:12:19;;;;;;;7.77;2.83;;;;;;;32.58;33.38;96126.28;5052227;28;20417;-69
2021/06/20 11:14:46;;;;;;;11.07;2.97;;;;;;;32.27;34.73;96129.19;5055407;28;20420;-69
2021/06/20 11:17:12;;;;;;;10.73;3.00;;;;;;;32.51;33.21;96122.44;5053265;28;20217;-68
2021/06/20 11:19:38;;;;;;;11.90;2.93;;;;;;;32.91;32.83;96120.31;5037064;28;20477;-68
2021/06/20 11:22:08;;;;;;;11.00;3.30;;;;;;;33.22;32.53;96119.25;5039882;28;20449;-70
2021/06/20 11:24:36;;;;;;;13.73;2.57;;;;;;;33.02;32.39;96117.25;5043969;28;20216;-69